Time,TemperatureF,DewpointF,PressureIn,WindDirection,WindDirectionDegrees,WindSpeedMPH,WindSpeedGustMPH,Humidity,HourlyPrecipIn,Conditions,Clouds,dailyrainin,SolarRadiationWatts/m^2,SoftwareType,DateUTC
2013-01-27 00:21:00,30.0,30.0,-100.00,WSW,254,4.0,5.0,99,0.00,,,0.00,0.000000,,2013-01-27 07:21:00,
2013-01-27 00:31:00,30.0,30.0,-100.00,WSW,254,4.0,5.0,99,0.00,,,0.00,0.000000,,2013-01-27 07:31:00,
2013-01-27 00:41:00,30.0,30.0,-100.00,WSW,254,4.0,5.0,99,0.00,,,0.00,0.000000,,2013-01-27 07:41:00,
2013-01-27 00:51:00,30.0,30.0,-100.00,WSW,254,4.0,5.0,99,0.00,,,0.00,0.000000,,2013-01-27 07:51:00,
2013-01-27 01:22:00,31.0,31.0,-100.00,West,276,8.0,15.0,99,0.00,,,0.00,0.000000,,2013-01-27 08:22:00,
2013-01-27 01:32:00,31.0,31.0,-100.00,West,276,8.0,15.0,99,0.00,,,0.00,0.000000,,2013-01-27 08:32:00,
2013-01-27 01:42:00,31.0,31.0,-100.00,West,276,8.0,15.0,99,0.00,,,0.00,0.000000,,2013-01-27 08:42:00,
2013-01-27 01:52:00,31.0,31.0,-100.00,West,276,8.0,15.0,99,0.00,,,0.00,0.000000,,2013-01-27 08:52:00,
2013-01-27 02:21:00,30.0,30.0,-100.00,West,269,6.0,13.0,99,0.00,,,0.00,0.000000,,2013-01-27 09:21:00,
2013-01-27 02:32:00,30.0,30.0,-100.00,West,269,6.0,13.0,99,0.00,,,0.00,0.000000,,2013-01-27 09:32:00,
2013-01-27 02:41:00,30.0,30.0,-100.00,West,269,6.0,13.0,99,0.00,,,0.00,0.000000,,2013-01-27 09:41:00,
2013-01-27 02:51:00,30.0,30.0,-100.00,West,269,6.0,13.0,99,0.00,,,0.00,0.000000,,2013-01-27 09:51:00,
2013-01-27 03:21:00,29.0,29.0,-100.00,West,267,6.0,11.0,99,0.00,,,0.00,0.000000,,2013-01-27 10:21:00,
2013-01-27 03:32:00,29.0,29.0,-100.00,West,267,6.0,11.0,99,0.00,,,0.00,0.000000,,2013-01-27 10:32:00,
2013-01-27 03:42:00,29.0,29.0,-100.00,West,267,6.0,11.0,99,0.00,,,0.00,0.000000,,2013-01-27 10:42:00,
2013-01-27 03:51:00,29.0,29.0,-100.00,West,267,6.0,11.0,99,0.00,,,0.00,0.000000,,2013-01-27 10:51:00,
2013-01-27 04:21:00,29.0,29.0,-100.00,West,262,5.0,7.0,99,0.00,,,0.00,0.000000,,2013-01-27 11:21:00,
2013-01-27 04:32:00,29.0,29.0,-100.00,West,262,5.0,7.0,99,0.00,,,0.00,0.000000,,2013-01-27 11:32:00,
2013-01-27 04:42:00,29.0,29.0,-100.00,West,262,5.0,7.0,99,0.00,,,0.00,0.000000,,2013-01-27 11:42:00,
2013-01-27 04:52:00,29.0,29.0,-100.00,West,262,5.0,7.0,99,0.00,,,0.00,0.000000,,2013-01-27 11:52:00,
2013-01-27 05:21:00,28.0,28.0,-100.00,WSW,252,3.0,8.0,99,0.00,,,0.00,0.000000,,2013-01-27 12:21:00,
2013-01-27 05:32:00,28.0,28.0,-100.00,WSW,252,3.0,8.0,99,0.00,,,0.00,0.000000,,2013-01-27 12:32:00,
2013-01-27 05:42:00,28.0,28.0,-100.00,WSW,252,3.0,8.0,99,0.00,,,0.00,0.000000,,2013-01-27 12:42:00,
2013-01-27 05:52:00,28.0,28.0,-100.00,WSW,252,3.0,8.0,99,0.00,,,0.00,0.000000,,2013-01-27 12:52:00,
2013-01-27 06:22:00,28.0,28.0,-100.00,West,267,5.0,7.0,99,0.00,,,0.00,0.000000,,2013-01-27 13:22:00,
2013-01-27 06:32:00,28.0,28.0,-100.00,West,267,5.0,7.0,99,0.00,,,0.00,0.000000,,2013-01-27 13:32:00,
2013-01-27 06:42:00,28.0,28.0,-100.00,West,267,5.0,7.0,99,0.00,,,0.00,0.000000,,2013-01-27 13:42:00,
2013-01-27 06:52:00,28.0,28.0,-100.00,West,267,5.0,7.0,99,0.00,,,0.00,0.000000,,2013-01-27 13:52:00,
2013-01-27 07:22:00,28.0,28.0,-100.00,West,273,9.0,16.0,99,0.00,,,0.00,0.000000,,2013-01-27 14:22:00,
2013-01-27 07:32:00,28.0,28.0,-100.00,West,273,9.0,16.0,99,0.00,,,0.00,0.000000,,2013-01-27 14:32:00,
2013-01-27 07:42:00,28.0,28.0,-100.00,West,273,9.0,16.0,99,0.00,,,0.00,0.000000,,2013-01-27 14:42:00,
2013-01-27 07:52:00,28.0,28.0,-100.00,West,273,9.0,16.0,99,0.00,,,0.00,0.000000,,2013-01-27 14:52:00,
2013-01-27 08:22:00,28.0,28.0,-100.00,WSW,246,5.0,14.0,98,0.00,,,0.00,2.000000,,2013-01-27 15:22:00,
2013-01-27 08:32:00,28.0,28.0,-100.00,WSW,246,5.0,14.0,98,0.00,,,0.00,2.000000,,2013-01-27 15:32:00,
2013-01-27 08:42:00,28.0,28.0,-100.00,WSW,246,5.0,14.0,98,0.00,,,0.00,2.000000,,2013-01-27 15:42:00,
2013-01-27 08:52:00,28.0,28.0,-100.00,WSW,246,5.0,14.0,98,0.00,,,0.00,2.000000,,2013-01-27 15:52:00,
2013-01-27 09:21:00,29.0,29.0,-100.00,West,262,6.0,8.0,98,0.00,,,0.00,17.000000,,2013-01-27 16:21:00,
2013-01-27 09:32:00,29.0,29.0,-100.00,West,262,6.0,8.0,98,0.00,,,0.00,17.000000,,2013-01-27 16:32:00,
2013-01-27 09:42:00,29.0,29.0,-100.00,West,262,6.0,8.0,98,0.00,,,0.00,17.000000,,2013-01-27 16:42:00,
2013-01-27 09:52:00,29.0,29.0,-100.00,West,262,6.0,8.0,98,0.00,,,0.00,17.000000,,2013-01-27 16:52:00,
2013-01-27 10:22:00,30.0,29.0,-100.00,West,259,5.0,9.0,97,0.00,,,0.00,44.000000,,2013-01-27 17:22:00,
2013-01-27 10:32:00,30.0,29.0,-100.00,West,259,5.0,9.0,97,0.00,,,0.00,44.000000,,2013-01-27 17:32:00,
2013-01-27 10:42:00,30.0,29.0,-100.00,West,259,5.0,9.0,97,0.00,,,0.00,44.000000,,2013-01-27 17:42:00,
2013-01-27 10:52:00,30.0,29.0,-100.00,West,259,5.0,9.0,97,0.00,,,0.00,44.000000,,2013-01-27 17:52:00,
2013-01-27 11:22:00,32.0,31.0,-100.00,WSW,248,5.0,9.0,95,0.00,,,0.00,116.000000,,2013-01-27 18:22:00,
2013-01-27 11:32:00,32.0,31.0,-100.00,WSW,248,5.0,9.0,95,0.00,,,0.00,116.000000,,2013-01-27 18:32:00,
2013-01-27 11:42:00,32.0,31.0,-100.00,WSW,248,5.0,9.0,95,0.00,,,0.00,116.000000,,2013-01-27 18:42:00,
2013-01-27 11:52:00,32.0,31.0,-100.00,WSW,248,5.0,9.0,95,0.00,,,0.00,116.000000,,2013-01-27 18:52:00,
2013-01-27 12:22:00,36.0,33.0,-100.00,West,272,5.0,10.0,89,0.11,,,0.11,406.000000,,2013-01-27 19:22:00,
2013-01-27 12:32:00,36.0,33.0,-100.00,West,272,5.0,10.0,89,0.11,,,0.11,406.000000,,2013-01-27 19:32:00,
2013-01-27 12:42:00,36.0,33.0,-100.00,West,272,5.0,10.0,89,0.11,,,0.11,406.000000,,2013-01-27 19:42:00,
2013-01-27 12:52:00,36.0,33.0,-100.00,West,272,5.0,10.0,89,0.11,,,0.11,406.000000,,2013-01-27 19:52:00,
2013-01-27 13:22:00,40.0,34.0,-100.00,WSW,241,5.0,11.0,79,0.13,,,0.24,503.000000,,2013-01-27 20:22:00,
2013-01-27 13:33:00,40.0,34.0,-100.00,WSW,241,5.0,11.0,79,0.13,,,0.24,503.000000,,2013-01-27 20:33:00,
2013-01-27 13:42:00,40.0,34.0,-100.00,WSW,241,5.0,11.0,79,0.13,,,0.24,503.000000,,2013-01-27 20:42:00,
2013-01-27 13:52:00,40.0,34.0,-100.00,WSW,241,5.0,11.0,79,0.13,,,0.24,503.000000,,2013-01-27 20:52:00,
2013-01-27 14:22:00,38.0,30.0,-100.00,WSW,245,8.0,12.0,72,0.00,,,0.24,428.000000,,2013-01-27 21:22:00,
2013-01-27 14:33:00,38.0,30.0,-100.00,WSW,245,8.0,12.0,72,0.00,,,0.24,428.000000,,2013-01-27 21:33:00,
2013-01-27 14:42:00,38.0,30.0,-100.00,WSW,245,8.0,12.0,72,0.00,,,0.24,428.000000,,2013-01-27 21:42:00,
2013-01-27 14:52:00,38.0,30.0,-100.00,WSW,245,8.0,12.0,72,0.00,,,0.24,428.000000,,2013-01-27 21:52:00,
2013-01-27 15:22:00,38.0,29.0,-100.00,WSW,250,7.0,11.0,71,0.00,,,0.24,353.000000,,2013-01-27 22:22:00,
2013-01-27 15:32:00,38.0,29.0,-100.00,WSW,250,7.0,11.0,71,0.00,,,0.24,353.000000,,2013-01-27 22:32:00,
2013-01-27 15:42:00,38.0,29.0,-100.00,WSW,250,7.0,11.0,71,0.00,,,0.24,353.000000,,2013-01-27 22:42:00,
2013-01-27 15:52:00,38.0,29.0,-100.00,WSW,250,7.0,11.0,71,0.00,,,0.24,353.000000,,2013-01-27 22:52:00,
2013-01-27 16:12:00,33.0,28.0,-100.00,West,267,6.0,14.0,80,0.00,,,0.24,194.000000,,2013-01-27 23:12:00,
2013-01-27 16:22:00,33.0,28.0,-100.00,West,267,6.0,14.0,80,0.00,,,0.24,194.000000,,2013-01-27 23:22:00,
2013-01-27 16:32:00,33.0,28.0,-100.00,West,267,6.0,14.0,80,0.00,,,0.24,194.000000,,2013-01-27 23:32:00,
2013-01-27 16:41:00,33.0,28.0,-100.00,West,267,6.0,14.0,80,0.00,,,0.24,194.000000,,2013-01-27 23:41:00,
2013-01-27 16:52:00,33.0,28.0,-100.00,West,267,6.0,14.0,80,0.00,,,0.24,194.000000,,2013-01-27 23:52:00,
2013-01-27 17:21:00,35.0,28.0,-100.00,West,269,7.0,9.0,75,0.00,,,0.24,39.000000,,2013-01-28 00:21:00,
2013-01-27 17:32:00,35.0,28.0,-100.00,West,269,7.0,9.0,75,0.00,,,0.24,39.000000,,2013-01-28 00:32:00,
2013-01-27 17:42:00,35.0,28.0,-100.00,West,269,7.0,9.0,75,0.00,,,0.24,39.000000,,2013-01-28 00:42:00,
2013-01-27 17:51:00,35.0,28.0,-100.00,West,269,7.0,9.0,75,0.00,,,0.24,39.000000,,2013-01-28 00:51:00,
2013-01-27 18:22:00,29.0,25.0,-100.00,ENE,67,1.0,8.0,86,0.00,,,0.24,9.000000,,2013-01-28 01:22:00,
2013-01-27 18:33:00,29.0,25.0,-100.00,ENE,67,1.0,8.0,86,0.00,,,0.24,9.000000,,2013-01-28 01:33:00,
2013-01-27 18:42:00,29.0,25.0,-100.00,ENE,67,1.0,8.0,86,0.00,,,0.24,9.000000,,2013-01-28 01:42:00,
2013-01-27 18:52:00,29.0,25.0,-100.00,ENE,67,1.0,8.0,86,0.00,,,0.24,9.000000,,2013-01-28 01:52:00,
2013-01-27 19:22:00,28.0,24.0,-100.00,East,87,1.0,4.0,83,0.00,,,0.24,0.000000,,2013-01-28 02:22:00,
2013-01-27 19:32:00,28.0,24.0,-100.00,East,87,1.0,4.0,83,0.00,,,0.24,0.000000,,2013-01-28 02:32:00,
2013-01-27 19:42:00,28.0,24.0,-100.00,East,87,1.0,4.0,83,0.00,,,0.24,0.000000,,2013-01-28 02:42:00,
2013-01-27 19:52:00,28.0,24.0,-100.00,East,87,1.0,4.0,83,0.00,,,0.24,0.000000,,2013-01-28 02:52:00,
2013-01-27 20:22:00,26.0,24.0,-100.00,ENE,75,4.0,5.0,93,0.00,,,0.24,0.000000,,2013-01-28 03:22:00,
2013-01-27 20:32:00,26.0,24.0,-100.00,ENE,75,4.0,5.0,93,0.00,,,0.24,0.000000,,2013-01-28 03:32:00,
2013-01-27 20:42:00,26.0,24.0,-100.00,ENE,75,4.0,5.0,93,0.00,,,0.24,0.000000,,2013-01-28 03:42:00,
2013-01-27 20:52:00,26.0,24.0,-100.00,ENE,75,4.0,5.0,93,0.00,,,0.24,0.000000,,2013-01-28 03:52:00,
2013-01-27 21:22:00,24.0,21.0,-100.00,East,85,5.0,13.0,89,0.00,,,0.24,0.000000,,2013-01-28 04:22:00,
2013-01-27 21:32:00,24.0,21.0,-100.00,East,85,5.0,13.0,89,0.00,,,0.24,0.000000,,2013-01-28 04:32:00,
2013-01-27 21:42:00,24.0,21.0,-100.00,East,85,5.0,13.0,89,0.00,,,0.24,0.000000,,2013-01-28 04:42:00,
2013-01-27 21:52:00,24.0,21.0,-100.00,East,85,5.0,13.0,89,0.00,,,0.24,0.000000,,2013-01-28 04:52:00,
2013-01-27 22:21:00,22.0,20.0,-100.00,East,93,7.0,11.0,90,0.00,,,0.24,0.000000,,2013-01-28 05:21:00,
2013-01-27 22:32:00,22.0,20.0,-100.00,East,93,7.0,11.0,90,0.00,,,0.24,0.000000,,2013-01-28 05:32:00,
2013-01-27 22:42:00,22.0,20.0,-100.00,East,93,7.0,11.0,90,0.00,,,0.24,0.000000,,2013-01-28 05:42:00,
2013-01-27 22:52:00,22.0,20.0,-100.00,East,93,7.0,11.0,90,0.00,,,0.24,0.000000,,2013-01-28 05:52:00,
2013-01-27 23:22:00,22.0,18.0,-100.00,East,97,6.0,13.0,84,0.00,,,0.24,0.000000,,2013-01-28 06:22:00,
2013-01-27 23:32:00,22.0,18.0,-100.00,East,97,6.0,13.0,84,0.00,,,0.24,0.000000,,2013-01-28 06:32:00,
2013-01-27 23:42:00,22.0,18.0,-100.00,East,97,6.0,13.0,84,0.00,,,0.24,0.000000,,2013-01-28 06:42:00,
2013-01-27 23:52:00,22.0,18.0,-100.00,East,97,6.0,13.0,84,0.00,,,0.24,0.000000,,2013-01-28 06:52:00,